Time;durP1;ratioP1;P1;durP2;ratioP2;P2;SDS_P1;SDS_P2;PMS_P1;PMS_P2;Temp;Humidity;BMP_temperature;BMP_pressure;BME280_temperature;BME280_humidity;BME280_pressure;Samples;Min_cycle;Max_cycle;Signal;HPM_P1;HPM_P2
2023/10/30 00:01:23;;;;;;;0.30;0.20;;;;;;;13.89;100.00;99030.88;5032515;28;20474;-52
2023/10/30 00:03:50;;;;;;;0.30;0.20;;;;;;;13.90;100.00;99041.47;5021547;28;20534;-52
2023/10/30 00:06:17;;;;;;;0.30;0.20;;;;;;;13.79;100.00;99048.44;5021999;28;20452;-52
2023/10/30 00:08:43;;;;;;;0.30;0.20;;;;;;;13.86;100.00;99047.13;5029882;28;20460;-52
2023/10/30 00:11:09;;;;;;;0.30;0.20;;;;;;;13.88;100.00;99040.72;5032218;28;20528;-52
2023/10/30 00:13:36;;;;;;;0.30;0.20;;;;;;;13.90;100.00;99037.94;5032251;28;20552;-51
2023/10/30 00:16:03;;;;;;;0.30;0.20;;;;;;;13.91;100.00;99039.66;5022474;28;20453;-51
2023/10/30 00:18:30;;;;;;;0.30;0.20;;;;;;;13.97;100.00;99044.59;5028975;28;20426;-51
2023/10/30 00:20:57;;;;;;;0.30;0.20;;;;;;;13.89;100.00;99028.22;5028557;28;20828;-51
2023/10/30 00:23:23;;;;;;;0.30;0.20;;;;;;;13.93;100.00;99030.59;5016266;28;20450;-51
2023/10/30 00:25:51;;;;;;;0.30;0.20;;;;;;;14.00;100.00;99036.44;5032055;28;20456;-52
2023/10/30 00:28:18;;;;;;;0.30;0.20;;;;;;;13.92;100.00;99023.53;5032100;28;20447;-51
2023/10/30 00:30:45;;;;;;;0.30;0.20;;;;;;;13.88;100.00;99029.16;5032214;28;20474;-52
2023/10/30 00:33:11;;;;;;;0.30;0.20;;;;;;;13.81;100.00;99028.69;5031927;28;20525;-51
2023/10/30 00:35:38;;;;;;;0.30;0.20;;;;;;;13.75;100.00;99026.41;5032169;28;20952;-51
2023/10/30 00:38:05;;;;;;;0.30;0.20;;;;;;;13.67;100.00;99009.97;5023111;28;20566;-51
2023/10/30 00:40:32;;;;;;;0.30;0.20;;;;;;;13.62;100.00;98986.25;5032047;28;20851;-51
2023/10/30 00:42:59;;;;;;;0.30;0.20;;;;;;;13.64;100.00;98979.00;5031973;28;20558;-51
2023/10/30 00:45:25;;;;;;;0.30;0.20;;;;;;;13.86;100.00;99033.75;5032121;28;20451;-52
2023/10/30 00:47:51;;;;;;;0.30;0.20;;;;;;;13.91;100.00;99071.72;5031947;28;20455;-52
2023/10/30 00:50:18;;;;;;;0.30;0.20;;;;;;;13.97;100.00;99074.00;5031952;28;20459;-52
2023/10/30 00:52:44;;;;;;;0.30;0.20;;;;;;;13.95;100.00;99078.59;5019806;28;20478;-52
2023/10/30 00:55:11;;;;;;;0.30;0.20;;;;;;;13.93;100.00;99084.03;5036065;28;20513;-52
2023/10/30 00:57:37;;;;;;;0.30;0.20;;;;;;;14.00;100.00;99072.97;5035766;28;20534;-52
2023/10/30 01:00:05;;;;;;;0.30;0.20;;;;;;;13.99;100.00;99084.63;5035756;28;20458;-51
2023/10/30 01:02:31;;;;;;;0.30;0.20;;;;;;;13.91;100.00;99082.41;5035468;28;20476;-51
2023/10/30 01:04:58;;;;;;;0.30;0.20;;;;;;;13.90;100.00;99078.88;5008866;28;20478;-51
2023/10/30 01:07:25;;;;;;;0.30;0.20;;;;;;;14.00;100.00;99083.66;5033426;28;20453;-52
2023/10/30 01:09:51;;;;;;;0.30;0.20;;;;;;;13.91;100.00;99085.06;5035423;28;20451;-51
2023/10/30 01:12:18;;;;;;;0.30;0.20;;;;;;;13.86;100.00;99085.38;5035564;28;20481;-52
2023/10/30 01:14:44;;;;;;;0.30;0.20;;;;;;;13.96;100.00;99082.97;5035549;28;20540;-51
2023/10/30 01:17:11;;;;;;;0.30;0.20;;;;;;;13.95;100.00;99081.25;5022133;28;20896;-51
2023/10/30 01:19:37;;;;;;;0.30;0.20;;;;;;;13.98;100.00;99077.53;5035339;28;20542;-52
2023/10/30 01:22:04;;;;;;;0.30;0.20;;;;;;;14.05;100.00;99081.56;5023120;28;21016;-51
2023/10/30 01:24:30;;;;;;;0.30;0.20;;;;;;;14.02;100.00;99063.03;5028647;28;20444;-52
2023/10/30 01:26:57;;;;;;;0.30;0.20;;;;;;;13.90;100.00;99049.50;5035343;28;20841;-52
2023/10/30 01:29:23;;;;;;;0.30;0.20;;;;;;;13.92;100.00;99063.59;5035263;28;20430;-51
2023/10/30 01:31:50;;;;;;;0.30;0.20;;;;;;;14.02;100.00;99058.56;5008795;28;20486;-52
2023/10/30 01:34:16;;;;;;;0.30;0.20;;;;;;;14.03;100.00;99046.91;5034967;28;20476;-51
2023/10/30 01:36:43;;;;;;;0.30;0.20;;;;;;;13.79;100.00;99051.97;5033246;28;20461;-52
2023/10/30 01:39:09;;;;;;;0.30;0.20;;;;;;;13.80;100.00;99058.16;5029222;28;20462;-51
2023/10/30 01:41:36;;;;;;;0.30;0.20;;;;;;;13.87;100.00;99054.16;5034998;28;20499;-51
2023/10/30 01:44:03;;;;;;;0.30;0.20;;;;;;;13.94;100.00;99045.66;5034742;28;20475;-50
2023/10/30 01:46:30;;;;;;;0.30;0.20;;;;;;;13.89;100.00;99031.75;5034842;28;20464;-51
2023/10/30 01:48:56;;;;;;;0.30;0.20;;;;;;;13.89;100.00;99047.78;5034766;28;20790;-51
2023/10/30 01:51:23;;;;;;;0.30;0.20;;;;;;;13.92;100.00;99052.91;5027876;28;20430;-51
2023/10/30 01:53:50;;;;;;;0.30;0.20;;;;;;;13.89;100.00;99055.78;5029228;28;20438;-51
2023/10/30 01:56:17;;;;;;;0.30;0.20;;;;;;;13.83;100.00;99061.50;5034814;28;20457;-51
2023/10/30 01:58:44;;;;;;;0.30;0.20;;;;;;;13.81;100.00;99049.19;5034599;28;20500;-51
2023/10/30 02:01:12;;;;;;;0.30;0.20;;;;;;;13.76;100.00;99053.97;5034631;28;20473;-52
2023/10/30 02:03:38;;;;;;;0.30;0.20;;;;;;;13.70;100.00;99047.19;5031103;28;21437;-51
2023/10/30 02:06:05;;;;;;;0.30;0.20;;;;;;;13.69;100.00;99040.13;5022255;28;20922;-51
2023/10/30 02:08:34;;;;;;;0.30;0.20;;;;;;;13.57;100.00;99043.56;5015424;28;20427;-51
2023/10/30 02:11:00;;;;;;;0.30;0.20;;;;;;;13.47;100.00;99023.72;5034451;28;20928;-51
2023/10/30 02:13:27;;;;;;;0.30;0.20;;;;;;;13.51;100.00;99030.56;5034218;28;20811;-51
2023/10/30 02:15:53;;;;;;;0.30;0.20;;;;;;;13.64;100.00;99036.88;5025591;28;20535;-51
2023/10/30 02:18:20;;;;;;;0.30;0.20;;;;;;;13.53;100.00;99032.19;5029930;28;20444;-53
2023/10/30 02:20:47;;;;;;;0.30;0.20;;;;;;;13.71;100.00;99027.56;5032089;28;20982;-52
2023/10/30 02:23:13;;;;;;;0.30;0.20;;;;;;;13.49;100.00;99027.13;5017783;28;20503;-52
2023/10/30 02:25:40;;;;;;;0.30;0.20;;;;;;;13.42;100.00;99025.78;5034189;28;20917;-51
2023/10/30 02:28:07;;;;;;;0.30;0.20;;;;;;;13.63;100.00;99036.03;5034078;28;20523;-51
2023/10/30 02:30:33;;;;;;;0.30;0.20;;;;;;;13.59;100.00;99036.31;5034098;28;20447;-51
2023/10/30 02:32:59;;;;;;;0.30;0.20;;;;;;;13.45;100.00;99033.63;5033684;28;20479;-51
2023/10/30 02:35:26;;;;;;;0.30;0.20;;;;;;;13.46;100.00;99024.66;5033977;28;20979;-52
2023/10/30 02:37:53;;;;;;;0.30;0.20;;;;;;;13.33;100.00;99011.19;5025381;28;20542;-51
2023/10/30 02:40:19;;;;;;;0.30;0.20;;;;;;;13.27;100.00;98998.22;5033997;28;20487;-52
2023/10/30 02:42:46;;;;;;;0.30;0.20;;;;;;;13.38;100.00;99003.75;5033812;28;20450;-52
2023/10/30 02:45:12;;;;;;;0.30;0.20;;;;;;;13.57;100.00;99014.19;5033703;28;20456;-52
2023/10/30 02:47:39;;;;;;;0.30;0.20;;;;;;;13.72;100.00;99015.06;5033987;28;20429;-52
2023/10/30 02:50:06;;;;;;;0.30;0.20;;;;;;;13.64;100.00;99020.84;5033858;28;20934;-52
2023/10/30 02:52:35;;;;;;;0.30;0.20;;;;;;;13.42;100.00;99017.78;5020514;28;20451;-53
2023/10/30 02:55:02;;;;;;;0.30;0.20;;;;;;;13.69;100.00;99041.94;5033775;28;20863;-52
2023/10/30 02:57:29;;;;;;;0.30;0.20;;;;;;;13.63;100.00;99032.50;5027186;28;20490;-51
2023/10/30 02:59:55;;;;;;;0.30;0.20;;;;;;;13.39;100.00;99018.81;5014485;28;20427;-52
2023/10/30 03:02:22;;;;;;;0.30;0.20;;;;;;;13.41;100.00;99008.03;5031175;28;20533;-53
2023/10/30 03:04:48;;;;;;;0.30;0.20;;;;;;;13.42;100.00;99018.63;5021098;28;20957;-52
2023/10/30 03:07:16;;;;;;;0.30;0.20;;;;;;;13.58;100.00;99027.44;5029026;28;20509;-51
2023/10/30 03:09:42;;;;;;;0.30;0.20;;;;;;;13.63;100.00;99030.69;5033786;28;20448;-51
2023/10/30 03:12:09;;;;;;;0.30;0.20;;;;;;;13.66;100.00;99010.94;5033044;28;20500;-52
2023/10/30 03:14:36;;;;;;;0.30;0.20;;;;;;;13.30;100.00;99003.38;5033179;28;20906;-51
2023/10/30 03:17:03;;;;;;;0.30;0.20;;;;;;;13.12;100.00;99005.28;5019790;28;20429;-52
2023/10/30 03:19:29;;;;;;;0.30;0.20;;;;;;;13.16;100.00;99016.66;5033269;28;20538;-52
2023/10/30 03:21:56;;;;;;;0.30;0.20;;;;;;;13.19;100.00;99024.50;5022034;28;20528;-53
2023/10/30 03:24:22;;;;;;;0.30;0.20;;;;;;;13.29;100.00;99039.00;5024931;28;20908;-52
2023/10/30 03:26:50;;;;;;;0.30;0.20;;;;;;;13.38;100.00;99045.59;5032901;28;20434;-53
2023/10/30 03:29:17;;;;;;;0.30;0.20;;;;;;;13.24;100.00;99043.75;5032850;28;20915;-52
2023/10/30 03:31:43;;;;;;;0.30;0.20;;;;;;;13.15;100.00;99041.59;5032833;28;20903;-51
2023/10/30 03:34:10;;;;;;;0.30;0.20;;;;;;;13.01;100.00;99034.41;5032976;28;20433;-51
2023/10/30 03:36:36;;;;;;;0.30;0.20;;;;;;;13.20;100.00;99059.09;5031710;28;20451;-52
2023/10/30 03:39:04;;;;;;;0.30;0.20;;;;;;;13.28;100.00;99062.16;5025293;28;21003;-52
2023/10/30 03:41:31;;;;;;;0.30;0.20;;;;;;;13.28;100.00;99063.97;5032498;28;20466;-52
2023/10/30 03:43:57;;;;;;;0.30;0.20;;;;;;;13.03;100.00;99053.88;5032830;28;20472;-51
2023/10/30 03:46:24;;;;;;;0.30;0.20;;;;;;;13.08;100.00;99053.59;5032471;28;20900;-51
2023/10/30 03:48:50;;;;;;;0.30;0.20;;;;;;;13.18;100.00;99052.13;5032836;28;20451;-51
2023/10/30 03:51:17;;;;;;;0.30;0.20;;;;;;;13.21;100.00;99057.28;5026402;28;20431;-51
2023/10/30 03:53:43;;;;;;;0.30;0.20;;;;;;;13.16;100.00;99057.53;5025915;28;20476;-51
2023/10/30 03:56:10;;;;;;;0.30;0.20;;;;;;;13.03;100.00;99041.41;5032225;28;20448;-52
2023/10/30 03:58:36;;;;;;;0.30;0.20;;;;;;;13.04;100.00;99042.25;5032420;28;20539;-51
2023/10/30 04:01:09;;;;;;;0.30;0.20;;;;;;;13.11;100.00;99035.59;5032185;28;20502;-52
2023/10/30 04:03:36;;;;;;;0.30;0.20;;;;;;;13.13;100.00;99025.69;5030416;28;20480;-48
2023/10/30 04:06:03;;;;;;;0.30;0.20;;;;;;;13.02;100.00;99018.34;5020268;28;20498;-49
2023/10/30 04:08:30;;;;;;;0.30;0.20;;;;;;;13.16;100.00;99024.66;5030129;28;20451;-48
2023/10/30 04:10:56;;;;;;;0.30;0.20;;;;;;;13.22;100.00;99033.19;5032179;28;20422;-48
2023/10/30 04:13:23;;;;;;;0.30;0.20;;;;;;;13.11;100.00;99026.72;5032214;28;20446;-49
2023/10/30 04:15:49;;;;;;;0.30;0.20;;;;;;;13.04;100.00;99029.78;5006761;28;20478;-48
2023/10/30 04:18:16;;;;;;;0.30;0.20;;;;;;;13.12;100.00;99029.31;5027341;28;20431;-48
2023/10/30 04:20:43;;;;;;;0.30;0.20;;;;;;;13.04;100.00;99024.44;5030781;28;20495;-48
2023/10/30 04:23:10;;;;;;;0.30;0.20;;;;;;;13.00;100.00;99014.88;5014983;28;20480;-47
2023/10/30 04:25:36;;;;;;;0.30;0.20;;;;;;;12.94;100.00;99001.91;5032479;28;20433;-48
2023/10/30 04:28:03;;;;;;;0.30;0.20;;;;;;;12.92;100.00;99006.50;5031791;28;20430;-48
2023/10/30 04:30:29;;;;;;;0.30;0.20;;;;;;;12.79;100.00;99008.16;5032468;28;20430;-47
2023/10/30 04:32:57;;;;;;;0.30;0.20;;;;;;;12.77;100.00;99002.06;5031921;28;20840;-48
2023/10/30 04:35:23;;;;;;;0.30;0.20;;;;;;;12.78;100.00;99002.91;5032200;28;20454;-48
2023/10/30 04:37:50;;;;;;;0.30;0.20;;;;;;;12.78;100.00;99002.91;5023153;28;20519;-47
2023/10/30 04:40:17;;;;;;;0.30;0.20;;;;;;;12.69;100.00;99006.97;5032312;28;20456;-49
2023/10/30 04:42:44;;;;;;;0.30;0.20;;;;;;;12.74;100.00;99010.19;5032154;28;20486;-47
2023/10/30 04:45:10;;;;;;;0.30;0.20;;;;;;;12.77;100.00;99006.53;5032334;28;20482;-48
2023/10/30 04:47:37;;;;;;;0.30;0.20;;;;;;;12.70;100.00;99001.53;5032339;28;20455;-48
2023/10/30 04:50:04;;;;;;;0.30;0.20;;;;;;;12.82;100.00;99001.78;5032090;28;20562;-49
2023/10/30 04:52:30;;;;;;;0.30;0.20;;;;;;;12.83;100.00;98999.00;5031768;28;20821;-48
2023/10/30 04:54:57;;;;;;;0.30;0.20;;;;;;;12.80;100.00;98999.19;5032200;28;20505;-48
2023/10/30 04:57:23;;;;;;;0.30;0.20;;;;;;;13.08;100.00;99010.91;5032179;28;20456;-48
2023/10/30 04:59:49;;;;;;;0.30;0.20;;;;;;;12.99;100.00;99006.97;5032082;28;20426;-48
2023/10/30 05:02:16;;;;;;;0.30;0.20;;;;;;;13.14;100.00;99023.88;5031794;28;20532;-48
2023/10/30 05:04:42;;;;;;;0.30;0.20;;;;;;;13.16;100.00;99036.19;5020296;28;20431;-48
2023/10/30 05:07:09;;;;;;;0.30;0.20;;;;;;;13.05;100.00;99030.63;5025974;28;20473;-49
2023/10/30 05:09:36;;;;;;;0.30;0.20;;;;;;;13.04;100.00;99029.78;5032035;28;20497;-48
2023/10/30 05:12:03;;;;;;;0.30;0.20;;;;;;;13.02;100.00;99037.00;5031674;28;20530;-49
2023/10/30 05:14:29;;;;;;;0.30;0.20;;;;;;;13.11;100.00;99043.59;5032015;28;20430;-48
2023/10/30 05:16:56;;;;;;;0.30;0.20;;;;;;;13.20;100.00;99061.78;5018606;28;20420;-48
2023/10/30 05:19:22;;;;;;;0.30;0.20;;;;;;;13.20;100.00;99066.25;5031707;28;20456;-48
2023/10/30 05:21:49;;;;;;;0.30;0.20;;;;;;;13.19;100.00;99070.72;5022186;28;20506;-48
2023/10/30 05:24:15;;;;;;;0.30;0.20;;;;;;;13.23;100.00;99064.25;5023255;28;20433;-48
2023/10/30 05:26:42;;;;;;;0.30;0.20;;;;;;;13.20;100.00;99061.78;5031598;28;20932;-47
2023/10/30 05:29:08;;;;;;;0.30;0.20;;;;;;;13.12;100.00;99076.47;5031610;28;20937;-48
2023/10/30 05:31:35;;;;;;;0.30;0.20;;;;;;;12.92;100.00;99072.31;5031575;28;20506;-48
2023/10/30 05:34:02;;;;;;;0.30;0.20;;;;;;;12.84;100.00;99055.88;5031494;28;20499;-48
2023/10/30 05:36:28;;;;;;;0.30;0.20;;;;;;;12.87;100.00;99055.69;5031837;28;20446;-48
2023/10/30 05:38:55;;;;;;;0.30;0.20;;;;;;;12.94;100.00;99073.06;5016382;28;20542;-48
2023/10/30 05:41:21;;;;;;;0.30;0.20;;;;;;;13.06;100.00;99077.69;5035079;28;20540;-48
2023/10/30 05:43:50;;;;;;;0.30;0.20;;;;;;;13.05;100.00;99094.66;5035161;28;20446;-48
2023/10/30 05:46:16;;;;;;;0.30;0.20;;;;;;;13.19;100.00;99109.91;5035047;28;20454;-48
2023/10/30 05:48:44;;;;;;;0.30;0.20;;;;;;;13.18;100.00;99100.16;5035208;28;20426;-49
2023/10/30 05:51:11;;;;;;;0.30;0.20;;;;;;;13.12;100.00;99090.66;5029639;28;20511;-48
2023/10/30 05:53:38;;;;;;;0.30;0.20;;;;;;;12.87;100.00;99077.88;5027645;28;20478;-49
2023/10/30 05:56:04;;;;;;;0.30;0.20;;;;;;;12.81;100.00;99062.25;5034615;28;20444;-50
2023/10/30 05:58:31;;;;;;;0.30;0.20;;;;;;;12.84;100.00;99031.88;5034775;28;20454;-48
2023/10/30 06:00:57;;;;;;;0.30;0.20;;;;;;;12.94;100.00;99035.72;5034423;28;20490;-48
2023/10/30 06:03:24;;;;;;;0.30;0.20;;;;;;;12.69;100.00;99030.97;5033744;28;20540;-48
2023/10/30 06:05:50;;;;;;;0.30;0.20;;;;;;;12.88;100.00;99026.25;5021137;28;20963;-48
2023/10/30 06:08:22;;;;;;;0.30;0.20;;;;;;;12.87;100.00;99031.69;5032890;28;20871;-48
2023/10/30 06:10:48;;;;;;;0.30;0.20;;;;;;;12.91;100.00;99030.59;5034545;28;20497;-48
2023/10/30 06:13:18;;;;;;;0.30;0.20;;;;;;;13.09;100.00;99018.81;5017033;28;21050;-49
2023/10/30 06:15:44;;;;;;;0.30;0.20;;;;;;;13.18;100.00;99034.31;5026948;28;20537;-48
2023/10/30 06:18:11;;;;;;;0.30;0.20;;;;;;;13.27;100.00;99041.75;5029071;28;20422;-48
2023/10/30 06:20:37;;;;;;;0.30;0.20;;;;;;;13.27;100.00;99056.91;5033755;28;20574;-50
2023/10/30 06:23:03;;;;;;;0.30;0.20;;;;;;;13.38;100.00;99059.81;5016410;28;20500;-48
2023/10/30 06:25:30;;;;;;;0.30;0.20;;;;;;;13.38;100.00;99066.97;5034498;28;20423;-49
2023/10/30 06:27:56;;;;;;;0.30;0.20;;;;;;;13.25;100.00;99049.00;5034242;28;20518;-48
2023/10/30 06:30:23;;;;;;;0.30;0.20;;;;;;;13.36;100.00;99059.06;5034150;28;20495;-48
2023/10/30 06:32:49;;;;;;;0.30;0.20;;;;;;;13.08;100.00;99054.47;5034268;28;20468;-48
2023/10/30 06:35:16;;;;;;;0.30;0.20;;;;;;;13.19;100.00;99051.19;5034193;28;20485;-48
2023/10/30 06:37:42;;;;;;;0.30;0.20;;;;;;;13.28;100.00;99055.97;5025235;28;20452;-48
2023/10/30 06:40:10;;;;;;;0.30;0.20;;;;;;;13.32;100.00;99054.84;5034142;28;20454;-48
2023/10/30 06:42:36;;;;;;;0.30;0.20;;;;;;;13.13;100.00;99048.84;5033789;28;20466;-50
2023/10/30 06:45:03;;;;;;;0.30;0.20;;;;;;;13.37;100.00;99059.91;5033892;28;20470;-47
2023/10/30 06:47:30;;;;;;;0.30;0.20;;;;;;;13.37;100.00;99065.25;5033858;28;20433;-48
2023/10/30 06:49:57;;;;;;;0.30;0.20;;;;;;;13.47;100.00;99069.94;5033122;28;20767;-48
2023/10/30 06:52:24;;;;;;;0.30;0.20;;;;;;;13.60;100.00;99065.59;5033372;28;20474;-48
2023/10/30 06:54:50;;;;;;;0.30;0.20;;;;;;;13.62;100.00;99068.16;5033847;28;20514;-48
2023/10/30 06:57:17;;;;;;;0.30;0.20;;;;;;;13.55;100.00;99072.13;5033609;28;20505;-50
2023/10/30 06:59:43;;;;;;;0.30;0.20;;;;;;;13.31;100.00;99070.00;5033958;28;20479;-48
2023/10/30 07:02:10;;;;;;;0.30;0.20;;;;;;;13.23;100.00;99068.72;5033470;28;20499;-48
2023/10/30 07:04:37;;;;;;;0.30;0.20;;;;;;;13.24;100.00;99071.31;5022906;28;20429;-48
2023/10/30 07:07:05;;;;;;;0.30;0.30;;;;;;;13.12;100.00;99074.66;5028057;28;20512;-48
2023/10/30 07:09:31;;;;;;;0.30;0.20;;;;;;;13.23;100.00;99077.59;5033775;28;20462;-47
2023/10/30 07:11:58;;;;;;;0.30;0.20;;;;;;;13.30;100.00;99078.97;5033169;28;20448;-47
2023/10/30 07:14:25;;;;;;;0.30;0.20;;;;;;;13.34;100.00;99079.63;5033365;28;20916;-48
2023/10/30 07:16:52;;;;;;;0.30;0.20;;;;;;;13.09;100.00;99076.66;5033432;28;20539;-49
2023/10/30 07:19:30;;;;;;;0.30;0.20;;;;;;;13.04;100.00;99076.94;5033514;28;20447;-48
2023/10/30 07:21:56;;;;;;;0.30;0.20;;;;;;;13.10;100.00;99071.22;5021984;28;20557;-47
2023/10/30 07:24:23;;;;;;;0.30;0.20;;;;;;;13.07;100.00;99074.09;5024964;28;20451;-48
2023/10/30 07:26:49;;;;;;;0.30;0.20;;;;;;;12.95;100.00;99078.31;5015485;28;20945;-48
2023/10/30 07:29:16;;;;;;;0.30;0.20;;;;;;;13.01;100.00;99079.75;5033324;28;20457;-48
2023/10/30 07:31:42;;;;;;;0.30;0.20;;;;;;;13.07;100.00;99084.75;5033114;28;20497;-48
2023/10/30 07:34:09;;;;;;;0.30;0.20;;;;;;;13.10;100.00;99083.72;5033016;28;20956;-49
2023/10/30 07:36:35;;;;;;;0.30;0.20;;;;;;;13.14;100.00;99086.09;5031970;28;20456;-48
2023/10/30 07:39:02;;;;;;;0.30;0.20;;;;;;;13.04;100.00;99084.94;5025423;28;20426;-48
2023/10/30 07:41:28;;;;;;;0.30;0.20;;;;;;;13.20;100.00;99085.78;5033072;28;20571;-49
2023/10/30 07:43:55;;;;;;;0.30;0.20;;;;;;;13.10;100.00;99092.56;5032824;28;20533;-48
2023/10/30 07:46:21;;;;;;;0.30;0.20;;;;;;;13.09;100.00;99082.00;5032699;28;20447;-48
2023/10/30 07:48:48;;;;;;;0.30;0.20;;;;;;;13.15;100.00;99085.16;5032958;28;20462;-48
2023/10/30 07:51:14;;;;;;;0.30;0.20;;;;;;;13.17;100.00;99090.44;5032333;28;20497;-48
2023/10/30 07:53:41;;;;;;;0.30;0.20;;;;;;;13.17;100.00;99091.28;5032595;28;21074;-47
2023/10/30 07:56:07;;;;;;;0.30;0.20;;;;;;;13.25;100.00;99091.72;5032809;28;20451;-48
2023/10/30 07:58:34;;;;;;;0.30;0.20;;;;;;;13.26;100.00;99090.75;5032837;28;20878;-48
2023/10/30 08:01:01;;;;;;;0.30;0.20;;;;;;;13.40;100.00;99097.94;5032496;28;20936;-48
2023/10/30 08:03:27;;;;;;;0.30;0.20;;;;;;;13.42;100.00;99100.53;5030221;28;20625;-48
2023/10/30 08:05:58;;;;;;;0.30;0.20;;;;;;;13.42;100.00;99097.84;5019292;28;20426;-48
2023/10/30 08:08:24;;;;;;;0.30;0.20;;;;;;;13.30;100.00;99094.97;5030369;28;20451;-48
2023/10/30 08:10:50;;;;;;;0.30;0.20;;;;;;;13.20;100.00;99091.13;5032474;28;20799;-48
2023/10/30 08:13:17;;;;;;;0.30;0.20;;;;;;;13.26;100.00;99095.22;5033001;28;20971;-48
2023/10/30 08:15:43;;;;;;;0.30;0.20;;;;;;;13.29;100.00;99097.72;5032396;28;20425;-48
2023/10/30 08:18:10;;;;;;;0.30;0.20;;;;;;;13.33;100.00;99097.47;5032260;28;20516;-48
2023/10/30 08:20:36;;;;;;;0.30;0.20;;;;;;;13.25;100.00;99096.19;5031666;28;20546;-48
2023/10/30 08:23:03;;;;;;;0.30;0.20;;;;;;;13.21;100.00;99091.97;5013731;28;20503;-48
2023/10/30 08:25:29;;;;;;;0.30;0.20;;;;;;;13.11;100.00;99094.28;5032488;28;20971;-49
2023/10/30 08:28:00;;;;;;;0.30;0.20;;;;;;;13.17;100.00;99096.63;5032199;28;20461;-48
2023/10/30 08:30:26;;;;;;;0.30;0.20;;;;;;;13.20;100.00;99096.47;5032251;28;20443;-48
2023/10/30 08:32:53;;;;;;;0.30;0.20;;;;;;;13.12;100.00;99081.81;5032022;28;20467;-49
2023/10/30 08:35:19;;;;;;;0.30;0.30;;;;;;;13.13;100.00;99084.38;5031943;28;20451;-48
2023/10/30 08:37:48;;;;;;;0.30;0.20;;;;;;;13.13;100.00;99075.53;5023699;28;20452;-48
2023/10/30 08:40:15;;;;;;;0.30;0.20;;;;;;;13.25;100.00;99073.03;5032029;28;20959;-48
2023/10/30 08:42:42;;;;;;;0.30;0.20;;;;;;;13.36;100.00;99066.19;5031735;28;21063;-49
2023/10/30 08:45:09;;;;;;;0.30;0.20;;;;;;;13.39;100.00;99058.00;5032135;28;20429;-49
2023/10/30 08:47:36;;;;;;;0.30;0.20;;;;;;;13.34;100.00;99055.63;5031635;28;20426;-49
2023/10/30 08:50:03;;;;;;;0.30;0.20;;;;;;;13.40;100.00;99051.72;5031919;28;20434;-49
2023/10/30 08:52:29;;;;;;;0.30;0.20;;;;;;;13.41;100.00;99042.75;5019349;28;20439;-48
2023/10/30 08:54:56;;;;;;;0.30;0.20;;;;;;;13.47;100.00;99042.41;5032155;28;20486;-48
2023/10/30 08:57:22;;;;;;;0.30;0.20;;;;;;;13.38;100.00;99029.59;5032003;28;20455;-49
2023/10/30 08:59:49;;;;;;;0.30;0.20;;;;;;;13.42;100.00;99025.78;5031796;28;20460;-48
2023/10/30 09:02:16;;;;;;;0.30;0.20;;;;;;;13.43;100.00;99017.72;5031797;28;20523;-48
2023/10/30 09:04:42;;;;;;;0.30;0.20;;;;;;;13.38;100.00;99021.59;5020164;28;20434;-49
2023/10/30 09:07:09;;;;;;;0.30;0.20;;;;;;;13.54;100.00;99028.56;5028262;28;20430;-48
2023/10/30 09:09:36;;;;;;;0.30;0.20;;;;;;;13.59;100.00;99023.81;5031624;28;20441;-48
2023/10/30 09:12:02;;;;;;;0.30;0.20;;;;;;;13.66;100.00;99018.09;5031309;28;20419;-48
2023/10/30 09:14:29;;;;;;;0.30;0.20;;;;;;;13.64;100.00;99020.84;5033747;28;20479;-48
2023/10/30 09:16:55;;;;;;;0.30;0.20;;;;;;;13.68;100.00;99010.84;5021490;28;20501;-48
2023/10/30 09:19:22;;;;;;;0.30;0.20;;;;;;;13.62;100.00;98998.75;5035359;28;20436;-48
2023/10/30 09:21:49;;;;;;;0.30;0.20;;;;;;;13.58;100.00;98984.72;5025090;28;20462;-48
2023/10/30 09:24:15;;;;;;;0.30;0.20;;;;;;;13.67;100.00;98972.59;5026470;28;20454;-48
2023/10/30 09:26:42;;;;;;;0.30;0.20;;;;;;;13.82;100.00;98978.78;5017560;28;20459;-49
2023/10/30 09:29:09;;;;;;;0.30;0.20;;;;;;;14.02;100.00;98980.22;5035263;28;20426;-49
2023/10/30 09:31:35;;;;;;;0.30;0.20;;;;;;;14.11;100.00;98964.44;5035137;28;20993;-48
2023/10/30 09:34:03;;;;;;;0.30;0.20;;;;;;;14.31;100.00;98964.97;5035317;28;20467;-50
2023/10/30 09:36:30;;;;;;;0.30;0.20;;;;;;;14.17;100.00;98963.19;5035034;28;20458;-49
2023/10/30 09:38:56;;;;;;;0.30;0.20;;;;;;;14.33;100.00;98966.59;5026719;28;20514;-49
2023/10/30 09:41:27;;;;;;;0.30;0.20;;;;;;;14.50;100.00;98968.19;5035199;28;20467;-49
2023/10/30 09:43:53;;;;;;;0.30;0.20;;;;;;;14.57;100.00;98963.31;5035068;28;20470;-49
2023/10/30 09:46:26;;;;;;;0.30;0.20;;;;;;;14.77;100.00;98970.84;5034688;28;20546;-49
2023/10/30 09:48:54;;;;;;;0.30;0.20;;;;;;;14.41;100.00;98974.97;5035247;28;20434;-48
2023/10/30 09:51:22;;;;;;;0.30;0.20;;;;;;;14.63;100.00;98984.28;5028320;28;20423;-48
2023/10/30 09:53:53;;;;;;;0.30;0.20;;;;;;;14.62;100.00;98980.75;5028860;28;20468;-49
2023/10/30 09:56:21;;;;;;;0.30;0.20;;;;;;;14.47;100.00;98974.59;5035076;28;20855;-49
2023/10/30 09:58:48;;;;;;;0.30;0.20;;;;;;;14.91;100.00;98984.16;5034631;28;20537;-50
2023/10/30 10:01:14;;;;;;;0.30;0.20;;;;;;;14.80;100.00;98975.97;5035016;28;20451;-49
2023/10/30 10:03:41;;;;;;;0.30;0.20;;;;;;;14.88;100.00;98980.81;5031914;28;20469;-49
2023/10/30 10:06:08;;;;;;;0.30;0.20;;;;;;;14.92;100.00;98977.84;5023366;28;20451;-49
2023/10/30 10:08:35;;;;;;;0.30;0.20;;;;;;;15.02;100.00;98989.63;5032474;28;20447;-49
2023/10/30 10:11:02;;;;;;;0.30;0.20;;;;;;;15.18;100.00;98980.56;5034337;28;20451;-51
2023/10/30 10:13:31;;;;;;;0.30;0.20;;;;;;;14.60;100.00;98969.28;5034221;28;21055;-49
2023/10/30 10:15:59;;;;;;;0.30;0.20;;;;;;;14.89;100.00;98974.50;5025009;28;20423;-49
2023/10/30 10:18:30;;;;;;;0.30;0.20;;;;;;;15.17;100.00;98976.16;5030708;28;20907;-49
2023/10/30 10:21:01;;;;;;;0.30;0.20;;;;;;;14.78;100.00;98967.19;5031038;28;20427;-49
2023/10/30 10:23:30;;;;;;;0.50;0.50;;;;;;;14.75;100.00;98962.91;5019816;28;20474;-49
2023/10/30 10:25:59;;;;;;;0.30;0.20;;;;;;;14.88;100.00;98962.09;5033771;28;20444;-49
2023/10/30 10:28:26;;;;;;;0.30;0.20;;;;;;;14.93;100.00;98947.44;5034062;28;20452;-49
2023/10/30 10:30:53;;;;;;;0.30;0.20;;;;;;;14.75;100.00;98943.34;5034578;28;20426;-49
2023/10/30 10:33:24;;;;;;;3.03;1.60;;;;;;;14.90;100.00;98934.28;5034064;28;20448;-49
2023/10/30 10:35:53;;;;;;;0.30;0.20;;;;;;;14.96;100.00;98933.00;5034317;28;20450;-50
2023/10/30 10:38:21;;;;;;;0.30;0.20;;;;;;;14.86;100.00;98931.91;5025364;28;20479;-49
2023/10/30 10:40:48;;;;;;;0.30;0.20;;;;;;;14.96;100.00;98923.16;5033965;28;20946;-50
2023/10/30 10:43:18;;;;;;;0.30;0.20;;;;;;;15.19;100.00;98896.59;5007849;28;20487;-49
2023/10/30 10:45:49;;;;;;;0.30;0.20;;;;;;;14.93;100.00;98893.91;5033874;28;20426;-49
2023/10/30 10:48:16;;;;;;;0.30;0.20;;;;;;;14.77;100.00;98899.47;5033734;28;20447;-49
2023/10/30 10:50:43;;;;;;;0.30;0.20;;;;;;;15.13;100.00;98897.06;5031867;28;20452;-48
2023/10/30 10:53:11;;;;;;;0.30;0.20;;;;;;;15.17;100.00;98902.06;5022254;28;20464;-49
2023/10/30 10:55:40;;;;;;;0.30;0.20;;;;;;;15.07;100.00;98907.19;5033558;28;20444;-49
2023/10/30 10:58:32;;;;;;;0.30;0.20;;;;;;;15.02;100.00;98895.13;5033538;28;20433;-49
2023/10/30 11:01:01;;;;;;;0.30;0.20;;;;;;;15.15;100.00;98889.78;5033851;28;20450;-49
2023/10/30 11:03:28;;;;;;;0.30;0.20;;;;;;;15.11;100.00;98889.13;5031653;28;20487;-50
2023/10/30 11:05:55;;;;;;;0.30;0.20;;;;;;;15.12;100.00;98890.84;5020619;28;20438;-49
2023/10/30 11:08:46;;;;;;;0.30;0.20;;;;;;;15.04;100.00;98891.38;5031671;28;20465;-49
2023/10/30 11:11:19;;;;;;;0.30;0.20;;;;;;;15.18;100.00;98889.53;5033182;28;20538;-49
2023/10/30 11:14:14;;;;;;;0.30;0.20;;;;;;;15.30;100.00;98881.50;5032987;28;20439;-49
2023/10/30 11:16:46;;;;;;;0.30;0.20;;;;;;;15.26;100.00;98863.09;5019908;28;20448;-49
2023/10/30 11:19:18;;;;;;;0.30;0.20;;;;;;;15.31;100.00;98858.28;5033077;28;20900;-49
2023/10/30 11:21:48;;;;;;;0.30;0.20;;;;;;;15.50;100.00;98850.66;5023801;28;20438;-50
2023/10/30 11:24:37;;;;;;;0.30;0.20;;;;;;;15.54;100.00;98852.13;5024358;28;20491;-49